createdAt,value
2019-03-06T00:00:00.653Z,81.84
2019-03-06T00:01:00.621Z,82.25
2019-03-06T00:02:00.614Z,81.74
2019-03-06T00:03:00.599Z,81.63
2019-03-06T00:04:00.610Z,82.25
2019-03-06T00:05:00.601Z,82.15
2019-03-06T00:06:00.563Z,81.74
2019-03-06T00:07:00.554Z,81.63
2019-03-06T00:08:00.541Z,82.46
2019-03-06T00:09:00.530Z,82.46
2019-03-06T00:10:00.620Z,82.46
2019-03-06T00:11:00.507Z,82.77
2019-03-06T00:12:00.495Z,82.81
2019-03-06T00:13:00.487Z,83.07
2019-03-06T00:14:00.476Z,82.97
2019-03-06T00:15:00.486Z,83.39
2019-03-06T00:16:00.464Z,82.77
2019-03-06T00:17:00.442Z,82.77
2019-03-06T00:18:00.475Z,82.15
2019-03-06T00:19:00.424Z,82.56
2019-03-06T00:20:00.432Z,82.87
2019-03-06T00:21:00.402Z,82.46
2019-03-06T00:22:00.397Z,83.07
2019-03-06T00:23:02.059Z,82.77
2019-03-06T00:24:00.364Z,82.67
2019-03-06T00:25:00.376Z,83.59
2019-03-06T00:26:00.347Z,83.28
2019-03-06T00:27:00.329Z,82.77
2019-03-06T00:28:00.355Z,83.28
2019-03-06T00:29:00.307Z,83.18
2019-03-06T00:30:00.372Z,83.49
2019-03-06T00:31:00.308Z,82.97
2019-03-06T00:32:00.274Z,83.28
2019-03-06T00:33:00.266Z,82.97
2019-03-06T00:34:00.267Z,82.97
2019-03-06T00:35:00.265Z,83.70
2019-03-06T00:36:00.230Z,83.18
2019-03-06T00:37:00.218Z,83.49
2019-03-06T00:38:00.208Z,83.59
2019-03-06T00:39:00.196Z,83.90
2019-03-06T00:40:00.368Z,83.70
2019-03-06T00:41:00.183Z,83.59
2019-03-06T00:42:00.164Z,83.59
2019-03-06T00:43:00.151Z,83.49
2019-03-06T00:44:00.147Z,84.42
2019-03-06T00:45:00.326Z,84.27
2019-03-06T00:46:00.132Z,83.70
2019-03-06T00:47:00.108Z,83.76
2019-03-06T00:48:00.094Z,83.97
2019-03-06T00:49:00.084Z,83.45
2019-03-06T00:50:00.177Z,83.65
2019-03-06T00:51:00.088Z,83.14
2019-03-06T00:52:00.078Z,82.83
2019-03-06T00:53:00.039Z,83.25
2019-03-06T00:54:00.029Z,83.14
2019-03-06T00:55:00.018Z,83.25
2019-03-06T00:56:00.030Z,83.14
2019-03-06T00:56:59.995Z,83.45
2019-03-06T00:58:00.024Z,83.65
2019-03-06T00:58:59.974Z,83.55
2019-03-06T00:59:59.960Z,83.45
2019-03-06T01:00:59.976Z,84.17
2019-03-06T01:01:59.939Z,83.65
2019-03-06T01:02:59.929Z,83.45
2019-03-06T01:03:59.935Z,83.35
2019-03-06T01:04:59.910Z,83.45
2019-03-06T01:05:59.919Z,83.86
2019-03-06T01:06:59.881Z,83.97
2019-03-06T01:07:59.871Z,83.65
2019-03-06T01:08:59.866Z,83.86
2019-03-06T01:09:59.875Z,83.55
2019-03-06T01:10:59.866Z,83.65
2019-03-06T01:11:59.827Z,84.38
2019-03-06T01:12:59.817Z,84.21
2019-03-06T01:13:59.802Z,84.58
2019-03-06T01:14:59.791Z,84.42
2019-03-06T01:15:59.836Z,84.58
2019-03-06T01:16:59.769Z,84.38
2019-03-06T01:17:59.758Z,84.58
2019-03-06T01:18:59.746Z,84.99
2019-03-06T01:19:59.737Z,84.38
2019-03-06T01:20:59.752Z,84.17
2019-03-06T01:21:59.736Z,84.27
2019-03-06T01:22:59.703Z,83.97
2019-03-06T01:23:59.691Z,84.07
2019-03-06T01:24:59.679Z,85.14
2019-03-06T01:25:59.693Z,84.21
2019-03-06T01:26:59.659Z,85.24
2019-03-06T01:27:59.665Z,85.24
2019-03-06T01:28:59.636Z,84.99
2019-03-06T01:29:59.627Z,84.72
2019-03-06T01:30:59.650Z,84.62
2019-03-06T01:31:59.624Z,84.52
2019-03-06T01:32:59.594Z,85.03
2019-03-06T01:33:59.603Z,84.52
2019-03-06T01:34:59.573Z,85.24
2019-03-06T01:35:59.582Z,85.14
2019-03-06T01:36:59.544Z,84.72
2019-03-06T01:37:59.534Z,84.52
2019-03-06T01:38:59.523Z,85.24
2019-03-06T01:39:59.536Z,85.03
2019-03-06T01:40:59.529Z,85.03
2019-03-06T01:41:59.512Z,84.93
2019-03-06T01:42:59.476Z,85.03
2019-03-06T01:43:59.468Z,84.62
2019-03-06T01:44:59.458Z,84.72
2019-03-06T01:45:59.465Z,84.83
2019-03-06T01:46:59.457Z,85.03
2019-03-06T01:47:59.422Z,85.24
2019-03-06T01:48:59.413Z,85.34
2019-03-06T01:49:59.398Z,84.62
2019-03-06T01:50:59.387Z,84.62
2019-03-06T01:51:59.411Z,85.34
2019-03-06T01:52:59.370Z,84.72
2019-03-06T01:53:59.353Z,85.03
2019-03-06T01:54:59.342Z,85.03
2019-03-06T01:55:59.330Z,84.83
2019-03-06T01:56:59.343Z,85.55
2019-03-06T01:57:59.360Z,85.44
2019-03-06T01:58:59.296Z,84.72
2019-03-06T01:59:59.285Z,84.93
2019-03-06T02:00:59.274Z,85.44
2019-03-06T02:01:59.285Z,85.24
2019-03-06T02:02:59.250Z,85.55
2019-03-06T02:03:59.252Z,85.44
2019-03-06T02:04:59.231Z,85.03
2019-03-06T02:05:59.220Z,84.72
2019-03-06T02:06:59.228Z,84.69
2019-03-06T02:07:59.198Z,85.03
2019-03-06T02:08:59.185Z,84.62
2019-03-06T02:09:59.184Z,85.14
2019-03-06T02:10:59.162Z,85.03
2019-03-06T02:11:59.176Z,84.99
2019-03-06T02:12:59.165Z,84.69
2019-03-06T02:13:59.145Z,84.99
2019-03-06T02:14:59.123Z,84.79
2019-03-06T02:15:59.144Z,85.03
2019-03-06T02:16:59.118Z,84.99
2019-03-06T02:17:59.083Z,85.20
2019-03-06T02:18:59.077Z,85.14
2019-03-06T02:19:59.062Z,85.24
2019-03-06T02:20:59.051Z,85.03
2019-03-06T02:21:59.084Z,84.72
2019-03-06T02:22:59.029Z,85.03
2019-03-06T02:23:59.017Z,84.93
2019-03-06T02:24:59.008Z,85.55
2019-03-06T02:25:58.994Z,85.55
2019-03-06T02:26:59.009Z,85.44
2019-03-06T02:27:58.985Z,84.93
2019-03-06T02:28:58.965Z,85.34
2019-03-06T02:29:58.951Z,85.55
2019-03-06T02:30:58.938Z,85.65
2019-03-06T02:31:58.954Z,85.65
2019-03-06T02:32:58.941Z,85.41
2019-03-06T02:33:58.926Z,85.30
2019-03-06T02:34:58.899Z,84.89
2019-03-06T02:35:58.888Z,85.55
2019-03-06T02:36:58.883Z,84.38
2019-03-06T02:37:58.891Z,84.83
2019-03-06T02:38:58.852Z,85.44
2019-03-06T02:39:58.839Z,85.03
2019-03-06T02:40:58.840Z,84.93
2019-03-06T02:41:58.819Z,85.65
2019-03-06T02:42:58.848Z,85.24
2019-03-06T02:43:58.794Z,85.79
2019-03-06T02:44:58.782Z,85.07
2019-03-06T02:45:58.773Z,85.34
2019-03-06T02:46:58.780Z,85.75
2019-03-06T02:47:58.776Z,86.47
2019-03-06T02:48:58.737Z,86.52
2019-03-06T02:49:58.727Z,85.34
2019-03-06T02:50:58.728Z,85.89
2019-03-06T02:51:58.708Z,85.89
2019-03-06T02:52:58.736Z,85.69
2019-03-06T02:53:58.688Z,84.93
2019-03-06T02:54:58.671Z,85.69
2019-03-06T02:55:58.663Z,85.59
2019-03-06T02:56:58.661Z,85.65
2019-03-06T02:57:58.686Z,86.31
2019-03-06T02:58:58.634Z,85.89
2019-03-06T02:59:58.616Z,86.00
2019-03-06T03:00:58.611Z,86.82
2019-03-06T03:01:58.594Z,86.61
2019-03-06T03:02:58.606Z,86.45
2019-03-06T03:03:58.600Z,86.21
2019-03-06T03:04:58.563Z,86.76
2019-03-06T03:05:58.548Z,86.87
2019-03-06T03:06:58.547Z,87.03
2019-03-06T03:07:58.550Z,87.03
2019-03-06T03:08:58.521Z,87.48
2019-03-06T03:09:58.517Z,86.76
2019-03-06T03:10:58.494Z,87.38
2019-03-06T03:11:58.494Z,86.97
2019-03-06T03:12:58.494Z,86.76
2019-03-06T03:13:58.458Z,87.34
2019-03-06T03:14:58.454Z,87.17
2019-03-06T03:15:58.449Z,87.07
2019-03-06T03:16:58.431Z,86.87
2019-03-06T03:17:58.440Z,87.17
2019-03-06T03:18:58.405Z,86.87
2019-03-06T03:19:58.395Z,87.24
2019-03-06T03:20:58.394Z,86.72
2019-03-06T03:21:58.386Z,87.07
2019-03-06T03:22:58.385Z,87.24
2019-03-06T03:23:58.373Z,87.48
2019-03-06T03:24:58.335Z,87.03
2019-03-06T03:25:58.325Z,87.13
2019-03-06T03:26:58.317Z,87.03
2019-03-06T03:27:58.313Z,87.03
2019-03-06T03:28:58.316Z,87.03
2019-03-06T03:29:58.285Z,86.97
2019-03-06T03:30:58.270Z,87.13
2019-03-06T03:31:58.258Z,86.61
2019-03-06T03:32:58.248Z,86.82
2019-03-06T03:33:58.291Z,87.17
2019-03-06T03:34:58.245Z,87.27
2019-03-06T03:35:58.213Z,87.17
2019-03-06T03:36:58.201Z,87.34
2019-03-06T03:37:58.193Z,87.34
2019-03-06T03:38:58.204Z,87.48
2019-03-06T03:39:58.185Z,87.85
2019-03-06T03:40:58.164Z,87.96
2019-03-06T03:41:58.143Z,87.79
2019-03-06T03:42:58.137Z,87.48
2019-03-06T03:43:58.154Z,87.54
2019-03-06T03:44:58.112Z,87.59
2019-03-06T03:45:58.110Z,87.65
2019-03-06T03:46:58.090Z,87.34
2019-03-06T03:47:58.076Z,87.38
2019-03-06T03:48:58.088Z,87.38
2019-03-06T03:49:58.057Z,87.03
2019-03-06T03:50:58.042Z,87.44
2019-03-06T03:51:58.041Z,87.24
2019-03-06T03:52:58.095Z,87.44
2019-03-06T03:53:58.033Z,87.44
2019-03-06T03:54:58.004Z,87.03
2019-03-06T03:55:57.986Z,87.13
2019-03-06T03:56:57.976Z,86.82
2019-03-06T03:57:57.979Z,87.03
2019-03-06T03:58:57.976Z,86.82
2019-03-06T03:59:57.941Z,86.93
2019-03-06T04:00:57.941Z,87.38
2019-03-06T04:01:57.922Z,87.13
2019-03-06T04:02:57.923Z,87.03
2019-03-06T04:03:57.937Z,87.24
2019-03-06T04:04:57.888Z,87.34
2019-03-06T04:05:57.874Z,86.87
2019-03-06T04:06:57.863Z,86.87
2019-03-06T04:07:57.850Z,86.93
2019-03-06T04:08:57.866Z,87.07
2019-03-06T04:09:57.847Z,87.48
2019-03-06T04:10:57.823Z,87.38
2019-03-06T04:11:57.818Z,87.34
2019-03-06T04:12:57.800Z,87.59
2019-03-06T04:13:57.811Z,87.48
2019-03-06T04:14:57.781Z,87.48
2019-03-06T04:15:57.796Z,87.90
2019-03-06T04:16:57.760Z,87.79
2019-03-06T04:17:57.739Z,87.90
2019-03-06T04:18:57.732Z,87.90
2019-03-06T04:19:57.743Z,87.69
2019-03-06T04:20:57.706Z,87.79
2019-03-06T04:21:57.713Z,88.10
2019-03-06T04:22:57.685Z,88.10
2019-03-06T04:23:57.673Z,87.48
2019-03-06T04:24:57.684Z,87.90
2019-03-06T04:25:57.657Z,87.90
2019-03-06T04:26:57.637Z,87.69
2019-03-06T04:27:57.648Z,87.93
2019-03-06T04:28:57.621Z,88.04
2019-03-06T04:29:57.627Z,87.63
2019-03-06T04:30:57.596Z,88.04
2019-03-06T04:31:57.585Z,87.42
2019-03-06T04:32:57.574Z,88.04
2019-03-06T04:33:57.566Z,87.63
2019-03-06T04:34:57.570Z,87.93
2019-03-06T04:35:57.535Z,88.24
2019-03-06T04:36:57.528Z,88.76
2019-03-06T04:37:57.513Z,88.56
2019-03-06T04:38:57.513Z,88.56
2019-03-06T04:39:57.513Z,88.35
2019-03-06T04:40:57.485Z,88.35
2019-03-06T04:41:57.467Z,88.45
2019-03-06T04:42:57.460Z,88.45
2019-03-06T04:43:57.446Z,88.76
2019-03-06T04:44:57.467Z,88.45
2019-03-06T04:45:57.428Z,87.93
2019-03-06T04:46:57.413Z,87.93
2019-03-06T04:47:57.397Z,88.04
2019-03-06T04:48:57.388Z,88.04
2019-03-06T04:49:57.403Z,87.93
2019-03-06T04:50:57.377Z,87.63
2019-03-06T04:51:57.354Z,87.83
2019-03-06T04:52:57.343Z,87.83
2019-03-06T04:53:57.331Z,88.65
2019-03-06T04:54:57.343Z,88.65
2019-03-06T04:55:57.310Z,88.65
2019-03-06T04:56:57.307Z,88.24
2019-03-06T04:57:57.287Z,88.14
2019-03-06T04:58:57.276Z,88.45
2019-03-06T04:59:57.291Z,88.35
2019-03-06T05:00:57.278Z,88.04
2019-03-06T05:01:57.242Z,87.73
2019-03-06T05:02:57.257Z,87.93
2019-03-06T05:03:57.219Z,87.83
2019-03-06T05:04:57.207Z,88.04
2019-03-06T05:05:57.222Z,88.80
2019-03-06T05:06:57.185Z,88.86
2019-03-06T05:07:57.178Z,88.35
2019-03-06T05:08:57.182Z,88.04
2019-03-06T05:09:57.151Z,88.45
2019-03-06T05:10:57.165Z,88.65
2019-03-06T05:11:57.153Z,87.83
2019-03-06T05:12:57.118Z,87.93
2019-03-06T05:13:57.109Z,87.52
2019-03-06T05:14:57.102Z,87.63
2019-03-06T05:15:57.107Z,87.52
2019-03-06T05:16:57.072Z,87.73
2019-03-06T05:17:57.061Z,87.32
2019-03-06T05:18:57.049Z,87.83
2019-03-06T05:19:57.043Z,88.04
2019-03-06T05:20:57.091Z,87.77
2019-03-06T05:21:57.015Z,87.83
2019-03-06T05:22:57.005Z,88.29
2019-03-06T05:23:56.994Z,88.65
2019-03-06T05:24:56.988Z,87.98
2019-03-06T05:25:56.991Z,88.86
2019-03-06T05:26:56.967Z,87.83
2019-03-06T05:27:56.948Z,88.08
2019-03-06T05:28:56.940Z,87.98
2019-03-06T05:29:56.925Z,88.04
2019-03-06T05:30:56.938Z,87.42
2019-03-06T05:31:56.905Z,87.32
2019-03-06T05:32:56.958Z,87.73
2019-03-06T05:33:56.883Z,87.52
2019-03-06T05:34:56.868Z,87.42
2019-03-06T05:35:56.884Z,87.01
2019-03-06T05:36:56.858Z,87.35
2019-03-06T05:37:56.835Z,87.21
2019-03-06T05:38:56.839Z,86.80
2019-03-06T05:39:56.813Z,86.76
2019-03-06T05:40:56.834Z,85.94
2019-03-06T05:41:56.790Z,85.83
2019-03-06T05:42:56.778Z,85.42
2019-03-06T05:43:56.767Z,85.31
2019-03-06T05:44:56.769Z,85.31
2019-03-06T05:45:56.748Z,85.42
2019-03-06T05:46:56.758Z,85.52
2019-03-06T05:47:56.722Z,85.63
2019-03-06T05:48:56.712Z,84.77
2019-03-06T05:49:56.702Z,84.77
2019-03-06T05:50:56.708Z,85.01
2019-03-06T05:51:56.702Z,84.77
2019-03-06T05:52:56.675Z,84.56
2019-03-06T05:53:56.654Z,85.38
2019-03-06T05:54:56.643Z,85.01
2019-03-06T05:55:56.634Z,84.70
2019-03-06T05:56:56.649Z,84.80
2019-03-06T05:57:56.614Z,84.91
2019-03-06T05:58:56.601Z,85.42
2019-03-06T05:59:56.588Z,85.31
2019-03-06T06:00:56.581Z,85.28
2019-03-06T06:01:56.635Z,85.63
2019-03-06T06:02:56.591Z,85.28
2019-03-06T06:03:56.545Z,84.70
2019-03-06T06:04:56.528Z,84.66
2019-03-06T06:05:56.517Z,84.91
2019-03-06T06:06:56.530Z,84.77
2019-03-06T06:07:56.509Z,85.07
2019-03-06T06:08:56.500Z,84.49
2019-03-06T06:09:56.473Z,83.84
2019-03-06T06:10:56.462Z,84.25
2019-03-06T06:11:56.475Z,83.87
2019-03-06T06:12:56.444Z,83.63
2019-03-06T06:13:56.427Z,83.42
2019-03-06T06:14:56.544Z,83.63
2019-03-06T06:15:56.406Z,83.63
2019-03-06T06:16:56.419Z,83.01
2019-03-06T06:17:56.388Z,82.91
2019-03-06T06:18:56.374Z,83.22
2019-03-06T06:19:56.359Z,83.32
2019-03-06T06:20:56.462Z,83.84
2019-03-06T06:21:56.360Z,83.32
2019-03-06T06:22:57.290Z,82.97
2019-03-06T06:23:56.454Z,82.56
2019-03-06T06:24:56.302Z,82.29
2019-03-06T06:25:56.291Z,82.15
2019-03-06T06:26:56.302Z,82.09
2019-03-06T06:27:56.269Z,82.19
2019-03-06T06:28:56.311Z,81.77
2019-03-06T06:29:56.247Z,82.09
2019-03-06T06:30:56.234Z,82.05
2019-03-06T06:31:56.255Z,81.37
2019-03-06T06:32:56.212Z,81.63
2019-03-06T06:33:56.202Z,81.74
2019-03-06T06:34:56.195Z,81.12
2019-03-06T06:35:56.182Z,81.53
2019-03-06T06:36:56.194Z,81.12
2019-03-06T06:37:56.211Z,81.74
2019-03-06T06:38:56.146Z,81.23
2019-03-06T06:39:56.173Z,82.40
2019-03-06T06:40:56.131Z,82.09
2019-03-06T06:41:56.327Z,81.77
2019-03-06T06:42:56.149Z,81.77
2019-03-06T06:43:57.512Z,82.29
2019-03-06T06:44:56.768Z,82.05
2019-03-06T06:45:56.068Z,81.95
2019-03-06T06:46:56.084Z,82.09
2019-03-06T06:47:56.128Z,82.09
2019-03-06T06:49:04.645Z,81.98
2019-03-06T06:49:56.026Z,81.98
2019-03-06T06:51:01.753Z,81.47
2019-03-06T06:51:57.001Z,81.77
2019-03-06T06:52:56.009Z,81.33
2019-03-06T06:53:56.000Z,81.23
2019-03-06T06:54:55.996Z,81.26
2019-03-06T06:55:55.960Z,81.37
2019-03-06T06:56:55.957Z,81.26
2019-03-06T06:57:55.972Z,80.81
2019-03-06T06:58:55.928Z,81.02
2019-03-06T06:59:55.919Z,80.61
2019-03-06T07:00:55.901Z,80.61
2019-03-06T07:01:57.147Z,80.19
2019-03-06T07:02:55.909Z,80.40
2019-03-06T07:03:55.875Z,80.09
2019-03-06T07:04:55.860Z,79.99
2019-03-06T07:05:55.846Z,79.99
2019-03-06T07:06:55.870Z,80.61
2019-03-06T07:07:55.839Z,79.95
2019-03-06T07:08:55.892Z,79.33
2019-03-06T07:09:55.800Z,79.16
2019-03-06T07:10:55.783Z,79.33
2019-03-06T07:11:55.834Z,79.06
2019-03-06T07:12:55.787Z,78.86
2019-03-06T07:13:55.759Z,78.75
2019-03-06T07:14:55.738Z,79.27
2019-03-06T07:15:55.768Z,78.72
2019-03-06T07:16:57.523Z,78.41
2019-03-06T07:17:55.735Z,79.03
2019-03-06T07:18:55.699Z,78.10
2019-03-06T07:19:55.687Z,78.20
2019-03-06T07:20:55.743Z,78.30
2019-03-06T07:21:55.663Z,78.30
2019-03-06T07:22:55.685Z,78.00
2019-03-06T07:23:55.647Z,77.48
2019-03-06T07:24:55.630Z,77.96
2019-03-06T07:25:55.623Z,77.65
2019-03-06T07:26:55.615Z,77.72
2019-03-06T07:27:55.624Z,76.28
2019-03-06T07:28:55.584Z,75.35
2019-03-06T07:29:55.577Z,75.67
2019-03-06T07:30:55.568Z,74.53
2019-03-06T07:31:55.560Z,75.52
2019-03-06T07:32:55.569Z,73.88
2019-03-06T07:33:55.553Z,75.08
2019-03-06T07:34:55.522Z,72.72
2019-03-06T07:35:55.510Z,73.30
2019-03-06T07:36:55.494Z,71.62
2019-03-06T07:37:55.493Z,70.90
2019-03-06T07:38:55.498Z,71.31
2019-03-06T07:39:55.463Z,70.50
2019-03-06T07:40:55.453Z,70.60
2019-03-06T07:41:55.446Z,70.18
2019-03-06T07:42:55.428Z,72.92
2019-03-06T07:43:55.450Z,68.89
2019-03-06T07:44:55.425Z,68.17
2019-03-06T07:45:55.390Z,68.96
2019-03-06T07:46:55.381Z,67.40
2019-03-06T07:47:55.369Z,67.40
2019-03-06T07:48:55.379Z,66.71
2019-03-06T07:49:55.363Z,65.07
2019-03-06T07:50:55.339Z,66.63
2019-03-06T07:51:55.331Z,65.17
2019-03-06T07:52:55.341Z,67.22
2019-03-06T07:53:55.338Z,65.34
2019-03-06T07:54:55.317Z,67.19
2019-03-06T07:55:55.288Z,65.45
2019-03-06T07:56:55.275Z,65.24
2019-03-06T07:57:55.283Z,68.11
2019-03-06T07:58:55.275Z,66.75
2019-03-06T07:59:55.243Z,65.01
2019-03-06T08:00:55.238Z,64.83
2019-03-06T08:01:55.224Z,64.86
2019-03-06T08:02:55.207Z,67.19
2019-03-06T08:03:55.250Z,65.27
2019-03-06T08:04:55.182Z,66.27
2019-03-06T08:05:55.196Z,65.86
2019-03-06T08:06:55.168Z,67.36
2019-03-06T08:07:55.150Z,64.39
2019-03-06T08:08:55.145Z,66.31
2019-03-06T08:09:55.234Z,65.08
2019-03-06T08:10:55.119Z,63.85
2019-03-06T08:11:55.118Z,65.18
2019-03-06T08:12:55.098Z,64.57
2019-03-06T08:13:55.093Z,64.47
2019-03-06T08:14:55.097Z,64.26
2019-03-06T08:15:55.081Z,65.08
2019-03-06T08:16:55.062Z,65.39
2019-03-06T08:17:55.049Z,64.84
2019-03-06T08:18:56.016Z,64.61
2019-03-06T08:19:55.052Z,63.69
2019-03-06T08:20:55.006Z,63.66
2019-03-06T08:21:54.999Z,62.74
2019-03-06T08:22:55.000Z,62.33
2019-03-06T08:23:54.975Z,60.69
2019-03-06T08:24:55.003Z,64.07
2019-03-06T08:25:54.964Z,62.51
2019-03-06T08:26:54.959Z,60.87
2019-03-06T08:27:54.930Z,61.99
2019-03-06T08:28:54.922Z,60.33
2019-03-06T08:29:54.910Z,60.85
2019-03-06T08:30:54.947Z,60.85
2019-03-06T08:31:54.888Z,59.62
2019-03-06T08:32:54.877Z,60.53
2019-03-06T08:33:54.889Z,59.52
2019-03-06T08:34:54.854Z,61.99
2019-03-06T08:35:54.865Z,59.82
2019-03-06T08:36:54.832Z,60.26
2019-03-06T08:37:54.819Z,60.33
2019-03-06T08:38:54.840Z,59.72
2019-03-06T08:39:54.802Z,60.13
2019-03-06T08:41:03.570Z,60.51
2019-03-06T08:41:55.791Z,61.50
2019-03-06T08:42:54.761Z,59.12
2019-03-06T08:43:54.761Z,60.55
2019-03-06T08:44:54.738Z,58.64
2019-03-06T08:45:54.752Z,60.07
2019-03-06T08:46:54.724Z,61.09
2019-03-06T08:47:54.712Z,59.46
2019-03-06T08:48:54.698Z,59.97
2019-03-06T08:49:55.301Z,58.82
2019-03-06T08:50:54.716Z,56.85
2019-03-06T08:51:54.662Z,58.72
2019-03-06T08:52:54.650Z,59.97
2019-03-06T08:53:54.701Z,59.69
2019-03-06T08:54:54.627Z,59.89
2019-03-06T08:55:54.638Z,60.92
2019-03-06T08:56:54.603Z,60.71
2019-03-06T08:57:54.602Z,61.53
2019-03-06T08:58:57.124Z,61.80
2019-03-06T08:59:57.109Z,60.76
2019-03-06T09:00:54.655Z,61.07
2019-03-06T09:02:00.476Z,59.00
2019-03-06T09:02:55.546Z,60.30
2019-03-06T09:03:54.530Z,58.94
2019-03-06T09:05:09.655Z,58.74
2019-03-06T09:05:54.629Z,57.92
2019-03-06T09:08:21.626Z,57.06
2019-03-06T09:09:10.480Z,57.57
2019-03-06T09:10:13.444Z,60.73
2019-03-06T09:11:10.473Z,59.71
2019-03-06T09:12:10.446Z,60.70
2019-03-06T09:13:10.435Z,59.58
2019-03-06T09:14:10.415Z,58.49
2019-03-06T09:15:10.412Z,60.63
2019-03-06T09:16:10.418Z,58.64
2019-03-06T09:17:10.415Z,61.78
2019-03-06T09:18:10.366Z,61.44
2019-03-06T09:19:10.353Z,57.34
2019-03-06T09:20:10.341Z,59.20
2019-03-06T09:21:10.538Z,61.31
2019-03-06T09:22:10.347Z,58.69
2019-03-06T09:23:10.309Z,56.99
2019-03-06T09:24:10.325Z,56.94
2019-03-06T09:25:10.287Z,60.51
2019-03-06T09:26:10.355Z,60.00
2019-03-06T09:27:10.286Z,60.00
2019-03-06T09:28:10.255Z,60.38
2019-03-06T09:29:10.243Z,59.97
2019-03-06T09:30:16.065Z,58.41
2019-03-06T09:31:11.247Z,58.62
2019-03-06T09:32:10.217Z,58.92
2019-03-06T09:33:10.209Z,57.42
2019-03-06T09:34:10.202Z,59.84
2019-03-06T09:35:10.200Z,57.60
2019-03-06T09:36:10.167Z,58.64
2019-03-06T09:37:10.211Z,57.83
2019-03-06T09:38:11.222Z,59.66
2019-03-06T09:39:10.135Z,60.07
2019-03-06T09:40:10.130Z,58.51
2019-03-06T09:41:10.129Z,59.20
2019-03-06T09:42:10.119Z,56.85
2019-03-06T09:43:10.088Z,56.68
2019-03-06T09:44:10.079Z,57.21
2019-03-06T09:45:10.066Z,58.85
2019-03-06T09:46:10.095Z,58.44
2019-03-06T09:47:10.111Z,60.00
2019-03-06T09:48:10.034Z,61.15
2019-03-06T09:49:11.791Z,60.44
2019-03-06T09:50:10.007Z,60.64
2019-03-06T09:51:09.996Z,62.10
2019-03-06T09:52:10.039Z,62.27
2019-03-06T09:53:09.975Z,62.14
2019-03-06T09:54:09.970Z,61.50
2019-03-06T09:55:09.955Z,61.50
2019-03-06T09:56:09.955Z,60.48
2019-03-06T09:57:09.973Z,60.82
2019-03-06T09:58:09.931Z,61.56
2019-03-06T09:59:09.969Z,61.76
2019-03-06T10:00:09.923Z,62.17
2019-03-06T10:01:10.455Z,60.74
2019-03-06T10:02:09.896Z,61.05
2019-03-06T10:03:09.864Z,60.85
2019-03-06T10:04:09.853Z,60.77
2019-03-06T10:05:09.845Z,61.90
2019-03-06T10:06:09.885Z,61.79
2019-03-06T10:07:09.819Z,60.57
2019-03-06T10:08:09.842Z,61.90
2019-03-06T10:09:09.827Z,61.90
2019-03-06T10:10:09.783Z,60.53
2019-03-06T10:11:09.781Z,60.44
2019-03-06T10:12:09.763Z,60.57
2019-03-06T10:13:09.775Z,60.57
2019-03-06T10:14:09.742Z,62.81
2019-03-06T10:15:09.769Z,62.17
2019-03-06T10:16:09.724Z,62.58
2019-03-06T10:17:09.709Z,62.14
2019-03-06T10:18:09.725Z,61.97
2019-03-06T10:19:09.685Z,60.94
2019-03-06T10:20:09.673Z,61.56
2019-03-06T10:21:09.661Z,61.56
2019-03-06T10:22:09.689Z,61.38
2019-03-06T10:23:09.664Z,62.20
2019-03-06T10:24:09.668Z,61.38
2019-03-06T10:25:09.617Z,61.38
2019-03-06T10:26:09.612Z,61.31
2019-03-06T10:27:09.614Z,61.99
2019-03-06T10:28:09.609Z,61.69
2019-03-06T10:29:09.600Z,61.46
2019-03-06T10:30:09.734Z,61.76
2019-03-06T10:31:09.558Z,60.53
2019-03-06T10:32:09.564Z,60.33
2019-03-06T10:33:09.549Z,61.25
2019-03-06T10:34:09.540Z,60.74
2019-03-06T10:35:09.549Z,60.64
2019-03-06T10:36:09.495Z,61.32
2019-03-06T10:37:09.488Z,60.33
2019-03-06T10:38:16.448Z,61.05
2019-03-06T10:39:10.480Z,61.05
2019-03-06T10:40:10.022Z,59.31
2019-03-06T10:41:12.603Z,59.31
2019-03-06T10:42:09.559Z,59.41
2019-03-06T10:43:09.413Z,60.74
2019-03-06T10:44:09.428Z,60.87
2019-03-06T10:45:09.406Z,60.94
2019-03-06T10:46:09.381Z,59.92
2019-03-06T10:47:09.382Z,59.00
2019-03-06T10:48:13.569Z,59.92
2019-03-06T10:49:09.373Z,61.05
2019-03-06T10:50:09.347Z,59.82
2019-03-06T10:51:09.322Z,60.53
2019-03-06T10:52:09.315Z,60.94
2019-03-06T10:53:09.314Z,60.67
2019-03-06T10:54:09.317Z,60.77
2019-03-06T10:55:09.276Z,60.57
2019-03-06T10:56:09.264Z,60.67
2019-03-06T10:57:09.259Z,60.97
2019-03-06T10:58:09.242Z,60.67
2019-03-06T10:59:09.262Z,60.57
2019-03-06T11:00:09.450Z,61.28
2019-03-06T11:01:09.314Z,61.08
2019-03-06T11:02:09.411Z,60.57
2019-03-06T11:03:09.188Z,60.97
2019-03-06T11:04:09.197Z,60.97
2019-03-06T11:05:09.162Z,60.67
2019-03-06T11:06:09.152Z,60.36
2019-03-06T11:07:09.141Z,60.57
2019-03-06T11:08:09.136Z,60.67
2019-03-06T11:09:09.178Z,61.38
2019-03-06T11:10:09.106Z,60.85
2019-03-06T11:11:09.097Z,61.56
2019-03-06T11:12:09.096Z,60.67
2019-03-06T11:13:09.188Z,60.33
2019-03-06T11:14:09.091Z,60.74
2019-03-06T11:15:09.054Z,61.35
2019-03-06T11:16:09.040Z,61.43
2019-03-06T11:17:09.026Z,61.12
2019-03-06T11:18:09.016Z,60.41
2019-03-06T11:19:09.165Z,61.60
2019-03-06T11:20:09.028Z,63.64
2019-03-06T11:21:08.980Z,59.00
2019-03-06T11:22:08.969Z,61.72
2019-03-06T11:23:08.957Z,56.81
2019-03-06T11:24:08.946Z,58.15
2019-03-06T11:25:08.956Z,57.34
2019-03-06T11:26:08.937Z,59.41
2019-03-06T11:27:08.913Z,57.65
2019-03-06T11:28:08.901Z,56.93
2019-03-06T11:29:08.891Z,57.14
2019-03-06T11:30:08.910Z,57.82
2019-03-06T11:31:08.866Z,59.55
2019-03-06T11:32:08.858Z,57.72
2019-03-06T11:33:08.863Z,58.40
2019-03-06T11:34:08.833Z,56.47
2019-03-06T11:35:08.843Z,57.08
2019-03-06T11:36:08.875Z,57.18
2019-03-06T11:37:08.801Z,55.46
2019-03-06T11:38:08.789Z,58.81
2019-03-06T11:39:08.795Z,59.30
2019-03-06T11:40:08.803Z,55.00
2019-03-06T11:41:08.754Z,54.92
2019-03-06T11:42:08.745Z,55.02
2019-03-06T11:43:08.753Z,56.95
2019-03-06T11:44:08.731Z,57.77
2019-03-06T11:45:08.732Z,55.10
2019-03-06T11:46:08.702Z,56.14
2019-03-06T11:47:08.687Z,56.55
2019-03-06T11:48:08.677Z,56.39
2019-03-06T11:49:08.682Z,54.94
2019-03-06T11:50:08.677Z,54.94
2019-03-06T11:51:08.649Z,55.38
2019-03-06T11:52:08.641Z,55.68
2019-03-06T11:53:08.666Z,54.87
2019-03-06T11:54:08.665Z,57.23
2019-03-06T11:55:08.631Z,55.38
2019-03-06T11:56:08.637Z,57.92
2019-03-06T11:57:08.577Z,54.51
2019-03-06T11:58:08.565Z,52.99
2019-03-06T11:59:08.593Z,52.97
2019-03-06T12:00:08.569Z,52.48
2019-03-06T12:01:08.616Z,53.30
2019-03-06T12:02:08.521Z,53.09
2019-03-06T12:03:08.510Z,57.12
2019-03-06T12:04:08.501Z,52.46
2019-03-06T12:05:08.789Z,57.50
2019-03-06T12:06:08.620Z,54.24
2019-03-06T12:07:08.467Z,51.21
2019-03-06T12:08:08.471Z,54.97
2019-03-06T12:09:08.445Z,53.34
2019-03-06T12:10:08.437Z,52.13
2019-03-06T12:11:08.962Z,51.95
2019-03-06T12:12:08.415Z,52.97
2019-03-06T12:13:08.401Z,54.69
2019-03-06T12:14:08.536Z,52.56
2019-03-06T12:15:08.417Z,51.75
2019-03-06T12:16:08.905Z,52.66
2019-03-06T12:17:08.373Z,50.35
2019-03-06T12:18:08.352Z,51.77
2019-03-06T12:19:08.338Z,51.70
2019-03-06T12:20:08.608Z,51.70
2019-03-06T12:21:08.352Z,52.73
2019-03-06T12:22:08.306Z,54.13
2019-03-06T12:23:08.291Z,52.51
2019-03-06T12:24:08.276Z,54.51
2019-03-06T12:25:08.265Z,51.16
2019-03-06T12:26:08.292Z,49.99
2019-03-06T12:27:08.247Z,51.62
2019-03-06T12:28:08.241Z,51.42
2019-03-06T12:29:08.224Z,51.92
2019-03-06T12:30:08.239Z,51.42
2019-03-06T12:31:08.224Z,51.92
2019-03-06T12:32:08.189Z,52.53
2019-03-06T12:33:08.192Z,52.15
2019-03-06T12:34:08.169Z,53.17
2019-03-06T12:35:08.154Z,51.84
2019-03-06T12:36:08.171Z,52.98
2019-03-06T12:37:08.133Z,52.58
2019-03-06T12:38:08.121Z,52.89
2019-03-06T12:39:08.116Z,52.78
2019-03-06T12:40:12.317Z,54.21
2019-03-06T12:41:09.111Z,54.72
2019-03-06T12:42:14.228Z,55.43
2019-03-06T12:43:09.065Z,54.94
2019-03-06T12:44:10.657Z,54.85
2019-03-06T12:45:08.113Z,55.25
2019-03-06T12:46:08.057Z,55.38
2019-03-06T12:47:08.022Z,54.97
2019-03-06T12:48:08.010Z,55.07
2019-03-06T12:49:08.006Z,56.70
2019-03-06T12:50:07.994Z,55.68
2019-03-06T12:51:08.010Z,55.38
2019-03-06T12:52:07.966Z,55.48
2019-03-06T12:53:07.980Z,56.40